Terminal Aerodrome Forecast
Issued by NWS Shreveport, LA

Home | Current Version | Previous Version | Text Only | Print | Product List | Glossary On
Versions: 1 2 3 4 5 6 7 8 9 10 11 12 13 14 15
685
FTUS44 KSHV 241140
TAFGGG
TAF
KGGG 241140Z 2412/2512 16005KT P6SM SKC
     FM241800 18014G22KT P6SM SCT060
     FM250100 17010KT P6SM SCT020
     FM250300 18009KT P6SM OVC050
     FM250600 19007KT 4SM BR OVC015
     FM250900 19008KT 4SM BR OVC007=

USA.gov is the U.S. government's official web portal to all federal, state and local government web resources and services.